createdAt,value
2023-01-07T00:01:59.467Z,9.20
2023-01-07T00:06:03.350Z,10.10
2023-01-07T00:10:05.580Z,11.40
2023-01-07T00:14:11.376Z,10.70
2023-01-07T00:18:13.471Z,10.73
2023-01-07T00:22:15.391Z,11.33
2023-01-07T00:26:20.477Z,25.50
2023-01-07T00:30:22.724Z,12.87
2023-01-07T00:34:25.251Z,14.03
2023-01-07T00:38:27.141Z,12.93
2023-01-07T00:42:47.360Z,11.53
2023-01-07T00:46:49.284Z,12.30
2023-01-07T00:50:53.191Z,11.23
2023-01-07T00:54:55.204Z,10.93
2023-01-07T00:58:57.055Z,10.50
2023-01-07T01:02:59.522Z,10.03
2023-01-07T01:07:01.372Z,10.43
2023-01-07T01:11:08.866Z,9.10
2023-01-07T01:15:13.179Z,10.50
2023-01-07T01:19:15.803Z,10.10
2023-01-07T01:23:17.698Z,8.63
2023-01-07T01:27:19.976Z,10.00
2023-01-07T01:31:21.780Z,8.83
2023-01-07T01:35:26.264Z,9.80
2023-01-07T01:39:28.717Z,9.23
2023-01-07T01:43:34.714Z,9.07
2023-01-07T01:48:09.648Z,9.70
2023-01-07T01:52:18.418Z,10.17
2023-01-07T01:56:25.363Z,9.87
2023-01-07T02:00:28.054Z,9.30
2023-01-07T02:04:31.082Z,10.43
2023-01-07T02:08:32.976Z,10.17
2023-01-07T02:13:05.132Z,10.27
2023-01-07T02:17:12.817Z,9.93
2023-01-07T02:21:40.723Z,10.30
2023-01-07T02:26:07.465Z,9.70
2023-01-07T02:30:35.983Z,10.27
2023-01-07T02:34:55.095Z,10.43
2023-01-07T02:39:00.445Z,10.87
2023-01-07T02:43:27.461Z,9.60
2023-01-07T02:47:52.372Z,9.43
2023-01-07T02:51:54.864Z,13.03
2023-01-07T02:56:19.435Z,11.47
2023-01-07T03:00:38.544Z,8.87
2023-01-07T03:05:07.016Z,10.03
2023-01-07T03:09:14.696Z,9.17
2023-01-07T03:13:17.787Z,9.13
2023-01-07T03:17:25.080Z,9.83
2023-01-07T03:21:28.225Z,7.80
2023-01-07T03:25:32.003Z,9.60
2023-01-07T03:29:35.716Z,8.60
2023-01-07T03:33:50.543Z,8.47
2023-01-07T03:37:53.718Z,8.70
2023-01-07T03:42:14.894Z,8.57
2023-01-07T03:46:17.892Z,9.00
2023-01-07T03:50:20.600Z,9.07
2023-01-07T03:54:23.850Z,9.67
2023-01-07T03:58:25.812Z,9.40
2023-01-07T04:02:27.791Z,8.13
2023-01-07T04:06:29.789Z,8.60
2023-01-07T04:10:31.696Z,8.00
2023-01-07T04:14:33.607Z,9.17
2023-01-07T04:18:35.454Z,8.53
2023-01-07T04:22:37.480Z,8.03
2023-01-07T04:26:40.741Z,8.07
2023-01-07T04:30:43.180Z,8.83
2023-01-07T04:34:45.227Z,7.90
2023-01-07T04:38:47.591Z,7.83
2023-01-07T04:42:49.739Z,8.03
2023-01-07T04:46:52.380Z,7.73
2023-01-07T04:50:55.162Z,8.40
2023-01-07T04:54:57.430Z,8.60
2023-01-07T04:58:59.368Z,8.10
2023-01-07T05:03:01.675Z,8.83
2023-01-07T05:07:03.804Z,8.90
2023-01-07T05:11:06.246Z,8.40
2023-01-07T05:15:09.114Z,7.90
2023-01-07T05:19:14.073Z,8.43
2023-01-07T05:23:20.707Z,8.20
2023-01-07T05:27:23.937Z,8.30
2023-01-07T05:31:25.985Z,7.80
2023-01-07T05:35:27.883Z,8.27
2023-01-07T05:39:29.819Z,8.47
2023-01-07T05:43:32.102Z,8.63
2023-01-07T05:47:33.880Z,7.63
2023-01-07T05:51:35.907Z,8.03
2023-01-07T05:55:40.852Z,8.23
2023-01-07T05:59:42.617Z,7.87
2023-01-07T06:03:44.474Z,8.37
2023-01-07T06:07:46.339Z,9.17
2023-01-07T06:11:48.338Z,10.30
2023-01-07T06:15:50.153Z,9.43
2023-01-07T06:19:51.953Z,9.77
2023-01-07T06:23:53.803Z,9.80
2023-01-07T06:27:58.009Z,9.53
2023-01-07T06:31:59.937Z,9.33
2023-01-07T06:36:01.757Z,8.63
2023-01-07T06:40:04.457Z,9.53
2023-01-07T06:44:06.311Z,9.33
2023-01-07T06:48:08.183Z,8.80
2023-01-07T06:52:10.143Z,9.37
2023-01-07T06:56:11.892Z,8.90
2023-01-07T07:00:14.187Z,10.80
2023-01-07T07:04:15.956Z,9.27
2023-01-07T07:08:17.753Z,9.70
2023-01-07T07:12:19.742Z,9.60
2023-01-07T07:16:24.003Z,9.60
2023-01-07T07:20:25.828Z,9.40
2023-01-07T07:24:27.663Z,10.23
2023-01-07T07:28:29.487Z,10.53
2023-01-07T07:32:31.263Z,10.50
2023-01-07T07:36:33.122Z,9.33
2023-01-07T07:40:34.888Z,10.70
2023-01-07T07:44:36.712Z,10.13
2023-01-07T07:48:39.694Z,10.53
2023-01-07T07:52:41.559Z,10.63
2023-01-07T07:56:43.405Z,11.37
2023-01-07T08:00:45.402Z,13.73
2023-01-07T08:04:47.213Z,12.73
2023-01-07T08:08:48.964Z,17.03
2023-01-07T08:12:50.896Z,13.90
2023-01-07T08:16:52.745Z,12.27
2023-01-07T08:20:55.773Z,11.27
2023-01-07T08:24:57.576Z,11.30
2023-01-07T08:28:59.333Z,11.03
2023-01-07T08:33:02.998Z,10.43
2023-01-07T08:37:04.745Z,12.00
2023-01-07T08:41:06.581Z,11.40
2023-01-07T08:45:10.296Z,9.80
2023-01-07T08:49:12.125Z,8.27
2023-01-07T08:53:13.892Z,7.67
2023-01-07T08:57:17.040Z,8.10
2023-01-07T09:01:19.012Z,7.57
2023-01-07T09:05:21.008Z,6.30
2023-01-07T09:09:22.939Z,7.37
2023-01-07T09:13:24.693Z,6.73
2023-01-07T09:17:26.591Z,6.13
2023-01-07T09:21:28.381Z,6.30
2023-01-07T09:25:30.170Z,5.93
2023-01-07T09:29:31.890Z,6.00
2023-01-07T09:33:34.241Z,5.40
2023-01-07T09:37:36.179Z,5.73
2023-01-07T09:41:43.861Z,5.37
2023-01-07T09:45:47.232Z,4.80
2023-01-07T09:49:54.395Z,5.40
2023-01-07T09:54:00.415Z,5.17
2023-01-07T09:58:02.539Z,4.97
2023-01-07T10:02:39.561Z,4.90
2023-01-07T10:06:51.324Z,4.83
2023-01-07T10:10:59.992Z,4.50
2023-01-07T10:15:16.645Z,4.73
2023-01-07T10:19:28.661Z,3.93
2023-01-07T10:23:36.922Z,10.97
2023-01-07T10:27:42.879Z,5.60
2023-01-07T10:31:45.756Z,4.67
2023-01-07T10:35:52.201Z,4.20
2023-01-07T10:40:22.757Z,4.13
2023-01-07T10:44:43.041Z,4.20
2023-01-07T10:49:06.434Z,3.93
2023-01-07T10:53:29.420Z,3.90
2023-01-07T10:57:32.821Z,4.13
2023-01-07T11:01:39.569Z,4.07
2023-01-07T11:05:42.029Z,3.37
2023-01-07T11:09:46.678Z,3.47
2023-01-07T11:14:19.390Z,3.70
2023-01-07T11:18:40.980Z,4.00
2023-01-07T11:22:42.872Z,3.77
2023-01-07T11:26:46.165Z,4.00
2023-01-07T11:30:58.577Z,3.70
2023-01-07T11:35:05.554Z,3.60
2023-01-07T11:39:21.947Z,3.50
2023-01-07T11:43:25.263Z,3.60
2023-01-07T11:47:27.166Z,3.60
2023-01-07T11:51:40.139Z,3.80
2023-01-07T11:55:58.028Z,3.40
2023-01-07T12:00:28.712Z,3.70
2023-01-07T12:04:36.380Z,3.83
2023-01-07T12:08:41.875Z,3.60
2023-01-07T12:12:44.637Z,3.73
2023-01-07T12:16:47.631Z,4.03
2023-01-07T12:21:01.562Z,3.77
2023-01-07T12:25:23.634Z,3.60
2023-01-07T12:29:50.084Z,3.33
2023-01-07T12:34:05.948Z,3.60
2023-01-07T12:38:20.549Z,4.40
2023-01-07T12:42:31.694Z,4.10
2023-01-07T12:47:31.355Z,4.00
2023-01-07T12:51:25.331Z,4.70
2023-01-07T12:55:37.406Z,4.70
2023-01-07T12:59:48.428Z,4.10
2023-01-07T13:04:16.967Z,3.70
2023-01-07T13:08:43.023Z,3.83
2023-01-07T13:12:47.480Z,4.00
2023-01-07T13:16:49.595Z,3.97
2023-01-07T13:21:00.293Z,3.90
2023-01-07T13:25:32.922Z,3.93
2023-01-07T13:30:33.785Z,3.67
2023-01-07T13:35:03.192Z,3.63
2023-01-07T13:39:33.875Z,3.93
2023-01-07T13:43:55.594Z,5.43
2023-01-07T13:48:00.367Z,8.57
2023-01-07T13:52:20.536Z,4.63
2023-01-07T13:56:22.602Z,7.40
2023-01-07T14:01:00.436Z,5.30
2023-01-07T14:05:11.332Z,4.97
2023-01-07T14:09:25.860Z,4.90
2023-01-07T14:13:39.929Z,5.17
2023-01-07T14:17:51.655Z,6.17
2023-01-07T14:22:09.388Z,5.93
2023-01-07T14:26:36.401Z,6.17
2023-01-07T14:30:50.227Z,8.33
2023-01-07T14:35:01.811Z,6.27
2023-01-07T14:39:03.723Z,6.20
2023-01-07T14:43:40.729Z,7.97
2023-01-07T14:47:45.804Z,6.77
2023-01-07T14:52:15.507Z,17.33
2023-01-07T14:56:54.865Z,7.93
2023-01-07T15:01:08.807Z,7.77
2023-01-07T15:05:42.957Z,7.87
2023-01-07T15:10:09.240Z,12.70
2023-01-07T15:14:41.910Z,9.93
2023-01-07T15:18:54.266Z,12.40
2023-01-07T15:23:20.146Z,7.90
2023-01-07T15:27:53.996Z,7.80
2023-01-07T15:32:19.228Z,11.33
2023-01-07T15:36:21.166Z,24.03
2023-01-07T15:40:25.787Z,28.13
2023-01-07T15:44:38.911Z,30.97
2023-01-07T15:48:42.101Z,24.10
2023-01-07T15:52:55.553Z,7.80
2023-01-07T15:57:10.423Z,7.93
2023-01-07T16:01:20.983Z,9.90
2023-01-07T16:05:25.171Z,13.70
2023-01-07T16:09:28.303Z,12.10
2023-01-07T16:13:31.000Z,10.83
2023-01-07T16:17:32.912Z,30.37
2023-01-07T16:21:41.706Z,18.03
2023-01-07T16:25:49.862Z,19.30
2023-01-07T16:29:54.703Z,24.97
2023-01-07T16:33:59.700Z,26.30
2023-01-07T16:38:03.576Z,34.73
2023-01-07T16:42:20.711Z,50.23
2023-01-07T16:46:35.965Z,51.67
2023-01-07T16:50:42.697Z,56.97
2023-01-07T16:54:48.806Z,42.03
2023-01-07T16:58:53.737Z,37.47
2023-01-07T17:02:59.656Z,121.30
2023-01-07T17:07:02.193Z,39.13
2023-01-07T17:11:18.157Z,33.57
2023-01-07T17:15:20.033Z,28.27
2023-01-07T17:19:25.464Z,27.30
2023-01-07T17:23:27.605Z,26.40
2023-01-07T17:27:31.055Z,23.90
2023-01-07T17:31:32.966Z,21.43
2023-01-07T17:35:44.905Z,16.23
2023-01-07T17:39:46.749Z,20.07
2023-01-07T17:43:48.626Z,26.90
2023-01-07T17:47:50.586Z,19.17
2023-01-07T17:51:54.589Z,17.67
2023-01-07T17:55:56.896Z,16.47
2023-01-07T17:59:58.911Z,18.30
2023-01-07T18:04:00.808Z,14.40
2023-01-07T18:08:02.694Z,8.50
2023-01-07T18:12:23.102Z,8.40
2023-01-07T18:16:25.783Z,10.87
2023-01-07T18:20:27.712Z,20.50
2023-01-07T18:24:29.532Z,18.60
2023-01-07T18:28:31.692Z,17.73
2023-01-07T18:32:33.495Z,16.47
2023-01-07T18:36:35.769Z,19.60
2023-01-07T18:40:38.565Z,20.37
2023-01-07T18:44:40.412Z,19.03
2023-01-07T18:48:42.302Z,18.73
2023-01-07T18:52:44.259Z,16.33
2023-01-07T18:56:46.212Z,15.53
2023-01-07T19:00:48.025Z,15.20
2023-01-07T19:04:50.578Z,15.80
2023-01-07T19:08:52.605Z,20.47
2023-01-07T19:12:54.411Z,23.60
2023-01-07T19:16:56.950Z,22.20
2023-01-07T19:21:05.680Z,24.07
2023-01-07T19:25:08.057Z,22.03
2023-01-07T19:29:11.702Z,20.73
2023-01-07T19:33:14.671Z,20.83
2023-01-07T19:37:16.542Z,25.07
2023-01-07T19:41:20.288Z,22.27
2023-01-07T19:45:22.223Z,23.80
2023-01-07T19:49:24.101Z,43.93
2023-01-07T19:53:26.666Z,30.23
2023-01-07T19:57:29.042Z,29.50
2023-01-07T20:01:31.174Z,23.67
2023-01-07T20:05:33.143Z,22.07
2023-01-07T20:09:35.023Z,22.10
2023-01-07T20:13:38.284Z,21.23
2023-01-07T20:17:40.121Z,21.43
2023-01-07T20:21:42.294Z,23.07
2023-01-07T20:25:44.136Z,16.67
2023-01-07T20:29:46.092Z,21.30
2023-01-07T20:33:49.294Z,20.97
2023-01-07T20:37:51.139Z,20.53
2023-01-07T20:41:53.095Z,17.93
2023-01-07T20:45:59.286Z,15.67
2023-01-07T20:50:01.244Z,14.53
2023-01-07T20:54:03.190Z,14.40
2023-01-07T20:58:05.004Z,16.20
2023-01-07T21:02:07.413Z,17.10
2023-01-07T21:06:12.437Z,18.20
2023-01-07T21:10:16.657Z,17.13
2023-01-07T21:14:18.474Z,15.73
2023-01-07T21:18:20.537Z,17.00
2023-01-07T21:22:23.015Z,17.57
2023-01-07T21:26:25.168Z,13.87
2023-01-07T21:30:28.232Z,13.27
2023-01-07T21:34:30.359Z,13.03
2023-01-07T21:38:32.226Z,14.30
2023-01-07T21:42:37.021Z,14.73
2023-01-07T21:46:39.179Z,14.33
2023-01-07T21:50:41.029Z,14.90
2023-01-07T21:54:42.847Z,14.90
2023-01-07T21:58:48.454Z,15.37
2023-01-07T22:02:50.208Z,15.10
2023-01-07T22:06:51.976Z,16.10
2023-01-07T22:10:54.112Z,16.20
2023-01-07T22:14:55.948Z,14.83
2023-01-07T22:18:57.955Z,14.40
2023-01-07T22:22:59.765Z,14.37
2023-01-07T22:27:01.564Z,14.30
2023-01-07T22:31:18.656Z,15.33
2023-01-07T22:35:20.721Z,11.87
2023-01-07T22:39:39.775Z,12.67
2023-01-07T22:43:42.234Z,11.97
2023-01-07T22:47:47.593Z,13.23
2023-01-07T22:51:49.390Z,13.60
2023-01-07T22:55:51.424Z,13.20
2023-01-07T22:59:53.243Z,13.47
2023-01-07T23:03:55.096Z,13.93
2023-01-07T23:08:00.007Z,12.87
2023-01-07T23:12:01.908Z,15.57
2023-01-07T23:16:06.294Z,15.57
2023-01-07T23:20:08.668Z,15.30
2023-01-07T23:24:11.645Z,13.80
2023-01-07T23:28:13.788Z,13.53
2023-01-07T23:32:15.717Z,14.90
2023-01-07T23:36:17.522Z,14.77
2023-01-07T23:40:19.382Z,27.23
2023-01-07T23:44:21.312Z,15.07
2023-01-07T23:48:23.065Z,16.20
2023-01-07T23:52:24.931Z,13.03
2023-01-07T23:56:26.782Z,13.03
